Time;durP1;ratioP1;P1;durP2;ratioP2;P2;SDS_P1;SDS_P2;PMS_P1;PMS_P2;Temp;Humidity;BMP_temperature;BMP_pressure;BME280_temperature;BME280_humidity;BME280_pressure;Samples;Min_cycle;Max_cycle;Signal;HPM_P1;HPM_P2
2021/11/24 00:01:11;;;;;;;21.15;12.30;;;;;;;6.84;70.41;101184.34;4918119;28;96520;-76
2021/11/24 00:03:37;;;;;;;20.70;12.07;;;;;;;6.87;70.27;101194.75;4917678;28;96957;-76
2021/11/24 00:06:03;;;;;;;20.20;11.63;;;;;;;6.87;70.36;101193.00;4950007;28;97890;-76
2021/11/24 00:08:29;;;;;;;21.40;12.98;;;;;;;6.89;69.95;101198.22;4949649;28;100341;-75
2021/11/24 00:10:54;;;;;;;22.58;12.35;;;;;;;6.84;70.33;101187.81;4934045;28;96941;-76
2021/11/24 00:13:20;;;;;;;23.63;11.70;;;;;;;6.81;70.61;101193.03;4934438;28;96812;-76
2021/11/24 00:15:46;;;;;;;21.60;12.43;;;;;;;6.82;70.37;101193.91;4933815;28;97907;-76
2021/11/24 00:18:11;;;;;;;22.25;13.10;;;;;;;6.84;70.38;101192.16;4950039;28;97075;-76
2021/11/24 00:20:37;;;;;;;24.05;12.38;;;;;;;6.89;69.88;101188.63;4949844;28;96438;-75
2021/11/24 00:23:03;;;;;;;25.08;13.05;;;;;;;6.89;69.96;101190.38;4917565;28;96875;-76
2021/11/24 00:25:29;;;;;;;27.15;13.88;;;;;;;6.80;70.32;101176.50;4933539;28;97874;-75
2021/11/24 00:27:54;;;;;;;28.58;14.68;;;;;;;6.83;69.82;101178.22;4933798;28;97116;-75
2021/11/24 00:30:20;;;;;;;25.30;13.45;;;;;;;6.88;70.21;101179.06;4933597;28;96568;-75
2021/11/24 00:32:47;;;;;;;29.70;12.75;;;;;;;6.84;70.02;101174.75;4917259;28;96831;-75
2021/11/24 00:35:13;;;;;;;26.75;12.48;;;;;;;6.84;70.06;101177.38;4917253;28;98722;-75
2021/11/24 00:37:38;;;;;;;21.95;11.05;;;;;;;6.79;69.92;101177.38;4935966;28;100457;-75
2021/11/24 00:40:06;;;;;;;19.17;10.15;;;;;;;6.85;70.06;101173.00;4937374;28;96532;-75
2021/11/24 00:42:31;;;;;;;18.58;9.52;;;;;;;6.85;69.81;101181.69;4937140;28;96705;-77
2021/11/24 00:44:57;;;;;;;16.15;9.23;;;;;;;6.85;69.83;101179.09;4952613;28;97892;-76
2021/11/24 00:47:23;;;;;;;20.60;8.75;;;;;;;6.84;69.90;101176.50;4953078;28;97166;-76
2021/11/24 00:49:48;;;;;;;16.55;9.52;;;;;;;6.87;69.86;101176.50;4953106;28;96479;-75
2021/11/24 00:52:14;;;;;;;18.80;10.25;;;;;;;6.78;70.21;101169.56;4936789;28;96782;-76
2021/11/24 00:54:39;;;;;;;16.92;9.00;;;;;;;6.83;70.21;101169.53;4952982;28;97612;-75
2021/11/24 00:57:05;;;;;;;17.70;9.07;;;;;;;6.89;69.82;101175.56;4936690;28;97084;-76
2021/11/24 00:59:31;;;;;;;19.88;9.52;;;;;;;6.95;69.82;101172.97;4952670;28;96639;-75
2021/11/24 01:01:56;;;;;;;18.40;9.38;;;;;;;6.88;69.46;101175.59;4936994;28;96795;-76
2021/11/24 01:04:22;;;;;;;15.27;7.88;;;;;;;6.92;69.26;101174.69;4952978;28;97415;-76
2021/11/24 01:06:47;;;;;;;17.38;8.15;;;;;;;6.93;69.56;101164.25;4935675;28;99694;-75
2021/11/24 01:09:13;;;;;;;15.52;9.05;;;;;;;6.91;69.62;101162.53;4952580;28;96633;-76
2021/11/24 01:11:40;;;;;;;17.48;8.55;;;;;;;7.01;69.51;101164.19;4938005;28;96740;-75
2021/11/24 01:14:06;;;;;;;19.67;8.88;;;;;;;6.97;69.55;101165.09;4936324;28;97598;-75
2021/11/24 01:16:31;;;;;;;14.80;8.18;;;;;;;6.93;69.79;101163.41;4937475;28;97317;-74
2021/11/24 01:18:57;;;;;;;14.02;8.52;;;;;;;6.94;69.47;101163.38;4936474;28;96527;-75
2021/11/24 01:21:23;;;;;;;13.15;8.40;;;;;;;6.95;69.37;101162.53;4937871;28;96740;-75
2021/11/24 01:23:49;;;;;;;14.45;8.18;;;;;;;6.89;69.45;101146.88;4952427;28;97999;-75
2021/11/24 01:26:15;;;;;;;11.02;6.97;;;;;;;6.94;69.55;101157.28;4952956;28;97275;-75
2021/11/24 01:28:41;;;;;;;12.10;8.35;;;;;;;6.97;69.27;101155.53;4936508;28;96562;-76
2021/11/24 01:31:07;;;;;;;12.07;7.18;;;;;;;6.96;69.20;101160.78;4936273;28;96887;-75
2021/11/24 01:33:32;;;;;;;10.55;6.97;;;;;;;7.00;68.89;101152.91;4919509;28;97448;-76
2021/11/24 01:35:58;;;;;;;10.45;7.22;;;;;;;6.99;68.89;101151.16;4952434;28;97605;-75
2021/11/24 01:38:23;;;;;;;12.20;7.25;;;;;;;6.92;68.94;101156.44;4904078;28;96535;-76
2021/11/24 01:40:50;;;;;;;12.52;7.38;;;;;;;6.93;69.37;101152.97;4935606;28;96921;-75
2021/11/24 01:43:16;;;;;;;11.82;7.45;;;;;;;6.97;69.11;101147.69;4937003;28;97555;-75
2021/11/24 01:45:42;;;;;;;12.98;7.47;;;;;;;7.03;68.79;101139.81;4935223;28;100236;-75
2021/11/24 01:48:08;;;;;;;14.25;8.48;;;;;;;7.10;68.87;101145.00;4952311;28;96469;-75
2021/11/24 01:50:34;;;;;;;12.48;8.25;;;;;;;7.04;68.96;101138.09;4952540;28;96797;-75
2021/11/24 01:53:00;;;;;;;11.50;7.60;;;;;;;7.05;69.06;101139.81;4935819;28;97367;-75
2021/11/24 01:55:25;;;;;;;11.02;7.63;;;;;;;6.95;69.58;101139.03;4935610;28;97214;-75
2021/11/24 01:57:52;;;;;;;11.53;7.60;;;;;;;6.95;69.32;101143.34;4935364;28;96778;-75
2021/11/24 02:00:23;;;;;;;10.48;7.90;;;;;;;6.93;70.01;101138.16;4951552;28;96821;-75
2021/11/24 02:02:49;;;;;;;9.63;7.60;;;;;;;6.91;69.88;101136.44;4935622;28;97428;-75
2021/11/24 02:05:15;;;;;;;11.27;7.80;;;;;;;6.94;69.81;101124.22;4951922;28;97262;-74
2021/11/24 02:07:41;;;;;;;9.20;7.07;;;;;;;6.99;69.46;101132.91;4935759;28;96522;-76
2021/11/24 02:10:07;;;;;;;11.00;7.90;;;;;;;7.01;69.48;101128.53;4952139;28;96737;-75
2021/11/24 02:12:32;;;;;;;13.27;8.15;;;;;;;6.95;69.44;101125.97;4935125;28;100901;-75
2021/11/24 02:14:58;;;;;;;9.98;7.38;;;;;;;6.97;69.65;101118.97;4935807;28;97588;-75
2021/11/24 02:17:24;;;;;;;12.05;7.47;;;;;;;7.02;69.42;101121.56;4952043;28;96587;-75
2021/11/24 02:19:50;;;;;;;10.63;7.88;;;;;;;6.95;69.49;101125.97;4951987;28;96706;-75
2021/11/24 02:22:15;;;;;;;12.00;8.05;;;;;;;6.96;68.99;101114.66;4950956;28;100351;-75
2021/11/24 02:24:41;;;;;;;12.27;7.90;;;;;;;7.01;69.38;101125.03;4951338;28;100054;-75
2021/11/24 02:27:10;;;;;;;11.82;7.47;;;;;;;6.96;69.06;101117.25;4935788;28;96417;-75
2021/11/24 02:29:36;;;;;;;9.35;6.75;;;;;;;6.98;68.92;101125.06;4935391;28;96815;-75
2021/11/24 02:32:02;;;;;;;11.93;6.05;;;;;;;7.01;68.53;101123.31;4936322;28;98098;-75
2021/11/24 02:34:29;;;;;;;11.45;7.05;;;;;;;7.00;68.44;101118.97;4951436;28;97231;-75
2021/11/24 02:36:55;;;;;;;11.82;7.05;;;;;;;7.02;68.67;101121.56;4935530;28;96568;-75
2021/11/24 02:39:20;;;;;;;12.40;7.05;;;;;;;7.00;68.17;101113.75;4952141;28;96731;-75
2021/11/24 02:41:46;;;;;;;10.43;7.13;;;;;;;7.00;68.10;101121.56;4951207;28;97455;-75
2021/11/24 02:44:37;;;;;;;9.88;6.78;;;;;;;7.06;67.75;101112.84;4950928;28;100061;-75
2021/11/24 02:47:09;;;;;;;12.20;7.45;;;;;;;7.13;67.90;101105.84;4934996;28;96475;-75
2021/11/24 02:49:39;;;;;;;9.77;6.97;;;;;;;7.01;67.41;101112.88;4951303;28;96804;-76
2021/11/24 02:52:05;;;;;;;13.13;7.35;;;;;;;6.97;67.75;101102.47;4950860;28;100585;-75
2021/11/24 02:54:31;;;;;;;9.90;7.10;;;;;;;6.92;67.92;101105.13;4951058;28;97274;-76
2021/11/24 02:57:01;;;;;;;9.07;7.22;;;;;;;7.00;67.70;101107.66;4951451;28;96518;-75
2021/11/24 02:59:27;;;;;;;15.15;7.07;;;;;;;6.97;67.77;101103.31;4933618;28;96852;-77
2021/11/24 03:01:52;;;;;;;11.25;7.25;;;;;;;6.93;68.06;101093.78;4950632;28;98609;-75
2021/11/24 03:04:18;;;;;;;11.27;7.38;;;;;;;6.97;67.80;101092.88;4951204;28;99196;-75
2021/11/24 03:06:43;;;;;;;13.75;7.63;;;;;;;6.96;67.79;101093.75;4951034;28;96579;-74
2021/11/24 03:09:09;;;;;;;11.50;7.25;;;;;;;6.99;67.99;101093.75;4935168;28;96889;-74
2021/11/24 03:11:35;;;;;;;9.07;6.82;;;;;;;6.99;68.03;101093.75;4950356;28;97693;-74
2021/11/24 03:14:01;;;;;;;10.57;7.70;;;;;;;6.98;68.01;101092.03;4934711;28;97824;-77
2021/11/24 03:16:26;;;;;;;11.50;7.30;;;;;;;6.97;67.68;101089.41;4918829;28;96428;-75
2021/11/24 03:18:52;;;;;;;11.95;7.60;;;;;;;7.00;67.49;101094.59;4951173;28;96813;-75
2021/11/24 03:21:18;;;;;;;14.03;8.10;;;;;;;7.02;67.59;101088.50;4950845;28;97436;-75
2021/11/24 03:23:44;;;;;;;10.38;7.50;;;;;;;6.94;67.78;101081.59;4934464;28;97424;-75
2021/11/24 03:26:10;;;;;;;12.07;7.38;;;;;;;6.95;67.86;101091.16;4951080;28;96645;-75
2021/11/24 03:28:35;;;;;;;12.02;8.07;;;;;;;6.96;67.89;101092.91;4951282;28;96717;-77
2021/11/24 03:31:01;;;;;;;16.65;9.77;;;;;;;6.96;67.90;101085.06;4933943;28;100901;-76
2021/11/24 03:33:26;;;;;;;13.60;9.60;;;;;;;6.90;67.78;101087.72;4934474;28;97145;-75
2021/11/24 03:35:52;;;;;;;12.95;9.75;;;;;;;6.92;67.94;101094.69;4933825;28;96677;-75
2021/11/24 03:38:18;;;;;;;16.15;9.30;;;;;;;6.92;67.85;101086.84;4918275;28;96885;-76
2021/11/24 03:40:43;;;;;;;15.68;10.68;;;;;;;6.93;67.88;101093.78;4950013;28;97845;-76
2021/11/24 03:43:09;;;;;;;15.88;11.32;;;;;;;6.97;68.02;101092.88;4933711;28;99922;-76
2021/11/24 03:45:37;;;;;;;15.48;10.82;;;;;;;6.95;67.63;101086.81;4950526;28;96644;-75
2021/11/24 03:48:04;;;;;;;14.88;11.40;;;;;;;7.02;67.52;101082.41;4934166;28;96959;-76
2021/11/24 03:50:30;;;;;;;15.52;10.93;;;;;;;6.97;67.79;101077.22;4950178;28;97502;-75
2021/11/24 03:52:55;;;;;;;16.52;10.95;;;;;;;7.05;67.20;101071.94;4950305;28;96924;-75
2021/11/24 03:55:21;;;;;;;17.15;11.18;;;;;;;6.98;67.32;101075.47;4934370;28;96557;-75
2021/11/24 03:57:47;;;;;;;15.80;10.90;;;;;;;6.87;67.12;101080.78;4918063;28;96577;-75
2021/11/24 04:00:19;;;;;;;15.43;10.43;;;;;;;6.95;66.97;101073.78;4932924;28;97542;-75
2021/11/24 04:02:45;;;;;;;;;;;;;;;6.90;66.69;101062.50;4902083;28;100202;-76
2021/11/24 04:05:11;;;;;;;13.68;9.95;;;;;;;6.91;66.96;101064.22;4967055;28;96507;-76
2021/11/24 04:07:37;;;;;;;12.35;10.25;;;;;;;6.93;66.50;101064.22;4950038;28;96787;-75
2021/11/24 04:10:04;;;;;;;15.02;10.70;;;;;;;6.93;66.91;101064.22;4917787;28;97494;-75
2021/11/24 04:12:30;;;;;;;15.80;11.25;;;;;;;6.96;66.83;101070.28;4935967;28;97470;-76
2021/11/24 04:14:56;;;;;;;14.40;10.07;;;;;;;6.94;66.57;101073.75;4937737;28;96385;-75
2021/11/24 04:17:21;;;;;;;13.65;9.20;;;;;;;6.95;66.32;101079.00;4939278;28;96762;-75
2021/11/24 04:19:47;;;;;;;16.20;10.07;;;;;;;6.95;66.81;101081.59;4937204;28;97738;-75
2021/11/24 04:22:13;;;;;;;13.88;10.07;;;;;;;6.88;66.76;101066.84;4937283;28;97623;-76
2021/11/24 04:24:39;;;;;;;17.35;9.55;;;;;;;6.96;66.35;101072.03;4937029;28;96465;-75
2021/11/24 04:27:05;;;;;;;15.25;10.52;;;;;;;6.96;66.46;101072.03;4953303;28;96751;-75
2021/11/24 04:29:30;;;;;;;16.52;10.38;;;;;;;6.86;66.72;101068.59;4937184;28;97387;-76
2021/11/24 04:31:56;;;;;;;17.95;10.55;;;;;;;6.86;66.88;101063.38;4936812;28;97301;-76
2021/11/24 04:34:21;;;;;;;17.30;10.27;;;;;;;6.88;66.57;101066.84;4953349;28;96586;-76
2021/11/24 04:36:47;;;;;;;15.25;10.10;;;;;;;6.91;66.55;101063.34;4937016;28;96653;-76
2021/11/24 04:39:13;;;;;;;13.68;9.57;;;;;;;6.91;66.45;101065.97;4938124;28;97546;-77
2021/11/24 04:41:38;;;;;;;15.32;9.90;;;;;;;6.96;66.57;101059.81;4936779;28;100475;-75
2021/11/24 04:44:05;;;;;;;14.07;9.45;;;;;;;6.90;66.54;101061.63;4953240;28;96595;-75
2021/11/24 04:46:30;;;;;;;15.05;10.05;;;;;;;6.82;66.48;101051.22;4953479;28;96761;-75
2021/11/24 04:48:56;;;;;;;14.65;9.32;;;;;;;6.80;66.77;101058.19;4952178;28;100718;-75
2021/11/24 04:51:21;;;;;;;13.63;9.98;;;;;;;6.80;66.84;101053.84;4952701;28;99013;-75
2021/11/24 04:53:47;;;;;;;17.10;10.13;;;;;;;6.83;66.67;101046.88;4937051;28;96412;-76
2021/11/24 04:56:13;;;;;;;16.50;9.52;;;;;;;6.89;66.40;101052.03;4953282;28;96715;-75
2021/11/24 04:58:51;;;;;;;12.65;9.65;;;;;;;6.89;66.53;101052.03;4937897;28;97413;-75
2021/11/24 05:01:17;;;;;;;12.90;9.85;;;;;;;6.88;66.25;101047.72;4936912;28;97874;-76
2021/11/24 05:03:42;;;;;;;16.33;10.02;;;;;;;6.86;66.37;101044.25;4952846;28;96576;-75
2021/11/24 05:06:08;;;;;;;14.52;9.68;;;;;;;6.86;65.89;101041.63;4937279;28;96721;-75
2021/11/24 05:08:35;;;;;;;12.77;9.73;;;;;;;6.77;66.00;101038.19;4936626;28;97371;-75
2021/11/24 05:11:02;;;;;;;16.60;9.50;;;;;;;6.73;66.55;101040.88;4952333;28;97507;-76
2021/11/24 05:13:28;;;;;;;14.85;8.98;;;;;;;6.80;66.09;101040.78;4936069;28;96497;-75
2021/11/24 05:15:57;;;;;;;14.77;9.85;;;;;;;6.77;66.50;101039.94;4952886;28;96825;-75
2021/11/24 05:18:29;;;;;;;18.48;9.73;;;;;;;6.71;66.73;101046.06;4952254;28;97903;-75
2021/11/24 05:21:02;;;;;;;13.10;8.82;;;;;;;6.69;66.51;101049.56;4951791;28;97365;-75
2021/11/24 05:23:30;;;;;;;14.70;8.95;;;;;;;6.65;66.74;101042.66;4937368;28;96470;-75
2021/11/24 05:25:55;;;;;;;15.20;9.95;;;;;;;6.68;66.34;101043.47;4936085;28;96738;-75
2021/11/24 05:28:21;;;;;;;15.88;9.07;;;;;;;6.65;66.39;101046.13;4937266;28;97411;-75
2021/11/24 05:30:46;;;;;;;14.93;9.63;;;;;;;6.60;66.67;101052.25;4937540;28;97170;-75
2021/11/24 05:33:12;;;;;;;16.92;9.52;;;;;;;6.60;66.84;101054.84;4936524;28;96794;-76
2021/11/24 05:35:38;;;;;;;14.40;9.43;;;;;;;6.58;66.38;101044.44;4952334;28;96788;-75
2021/11/24 05:38:03;;;;;;;18.10;9.30;;;;;;;6.55;66.33;101045.31;4951790;28;97479;-75
2021/11/24 05:40:29;;;;;;;23.85;11.68;;;;;;;6.61;66.69;101048.78;4935698;28;97130;-75
2021/11/24 05:42:55;;;;;;;30.58;14.05;;;;;;;6.53;66.39;101041.84;4951428;28;96768;-76
2021/11/24 05:45:34;;;;;;;36.85;16.83;;;;;;;6.61;66.34;101059.22;4951734;28;96798;-76
2021/11/24 05:48:06;;;;;;;38.70;18.17;;;;;;;6.59;66.68;101048.78;4950391;28;96852;-75
2021/11/24 05:50:31;;;;;;;35.78;17.13;;;;;;;6.52;66.51;101047.09;4920231;28;100465;-75
2021/11/24 05:52:57;;;;;;;37.47;16.70;;;;;;;6.53;66.49;101047.06;4937081;28;96381;-76
2021/11/24 05:55:24;;;;;;;31.48;14.80;;;;;;;6.52;66.39;101047.94;4936342;28;96800;-76
2021/11/24 05:57:50;;;;;;;25.47;13.20;;;;;;;6.53;66.43;101052.28;4919247;28;100981;-75
2021/11/24 06:00:16;;;;;;;26.83;12.67;;;;;;;6.52;66.73;101049.69;4935047;28;97432;-75
2021/11/24 06:02:42;;;;;;;22.95;10.90;;;;;;;6.57;66.27;101051.41;4936362;28;96486;-75
2021/11/24 06:05:08;;;;;;;21.33;10.48;;;;;;;6.53;66.38;101054.88;4935769;28;96822;-75
2021/11/24 06:07:34;;;;;;;17.42;10.13;;;;;;;6.52;66.54;101050.56;4935460;28;98111;-75
2021/11/24 06:10:05;;;;;;;17.23;9.30;;;;;;;6.54;66.87;101054.03;4936411;28;97129;-75
2021/11/24 06:12:31;;;;;;;19.85;9.63;;;;;;;6.45;67.26;101050.59;4935426;28;96724;-76
2021/11/24 06:14:57;;;;;;;19.48;8.80;;;;;;;6.53;67.05;101054.03;4937080;28;96705;-76
2021/11/24 06:17:22;;;;;;;16.17;8.93;;;;;;;6.50;67.65;101060.13;4951042;28;97580;-76
2021/11/24 06:19:48;;;;;;;13.82;8.45;;;;;;;6.49;67.53;101061.00;4919004;28;100051;-76
2021/11/24 06:22:14;;;;;;;17.15;8.40;;;;;;;6.49;67.97;101063.63;4951759;28;96566;-76
2021/11/24 06:24:40;;;;;;;24.15;11.70;;;;;;;6.51;67.32;101051.41;4919451;28;96842;-76
2021/11/24 06:27:06;;;;;;;28.45;12.80;;;;;;;6.47;68.04;101046.25;4934436;28;100510;-75
2021/11/24 06:29:31;;;;;;;22.83;11.25;;;;;;;6.50;67.78;101054.91;4934979;28;99924;-74
2021/11/24 06:31:57;;;;;;;21.73;10.43;;;;;;;6.56;68.09;101056.63;4934768;28;96552;-77
2021/11/24 06:34:23;;;;;;;21.15;10.95;;;;;;;6.57;67.79;101054.00;4934338;28;96676;-75
2021/11/24 06:36:48;;;;;;;19.87;10.50;;;;;;;6.61;67.80;101054.00;4951048;28;97542;-75
2021/11/24 06:39:14;;;;;;;16.45;9.30;;;;;;;6.68;67.92;101053.06;4934825;28;97857;-75
2021/11/24 06:41:40;;;;;;;13.40;9.05;;;;;;;6.69;67.70;101060.00;4934983;28;96440;-76
2021/11/24 06:44:06;;;;;;;12.73;8.40;;;;;;;6.67;67.91;101052.19;4902996;28;96829;-75
2021/11/24 06:46:33;;;;;;;18.65;9.52;;;;;;;6.72;67.81;101054.75;4934561;28;100569;-76
2021/11/24 06:48:59;;;;;;;18.33;8.82;;;;;;;6.71;67.60;101060.88;4934642;28;97639;-76
2021/11/24 06:51:24;;;;;;;16.17;8.90;;;;;;;6.71;67.92;101064.34;4950662;28;96630;-75
2021/11/24 06:53:50;;;;;;;20.00;9.17;;;;;;;6.75;68.31;101060.00;4934592;28;96819;-76
2021/11/24 06:56:16;;;;;;;16.65;8.10;;;;;;;6.73;67.99;101067.81;4934696;28;97575;-77
2021/11/24 06:58:42;;;;;;;16.75;9.25;;;;;;;6.68;68.05;101060.88;4950729;28;97783;-76
2021/11/24 07:01:08;;;;;;;16.17;9.98;;;;;;;6.77;68.00;101069.50;4935883;28;96370;-75
2021/11/24 07:03:33;;;;;;;20.30;9.25;;;;;;;6.77;67.90;101068.66;4951239;28;96752;-76
2021/11/24 07:05:59;;;;;;;12.70;8.20;;;;;;;6.81;67.61;101067.78;4934459;28;98129;-76
2021/11/24 07:08:25;;;;;;;17.15;10.07;;;;;;;6.80;68.01;101069.50;4951107;28;97636;-76
2021/11/24 07:10:50;;;;;;;16.17;9.15;;;;;;;6.88;67.40;101063.38;4918343;28;96650;-76
2021/11/24 07:13:16;;;;;;;13.20;8.10;;;;;;;6.92;66.79;101068.56;4936039;28;96726;-76
2021/11/24 07:15:42;;;;;;;12.27;7.00;;;;;;;6.89;66.51;101070.31;4933692;28;100431;-74
2021/11/24 07:18:07;;;;;;;10.23;6.93;;;;;;;7.02;66.18;101082.41;4934133;28;97371;-75
2021/11/24 07:20:33;;;;;;;11.35;6.82;;;;;;;6.99;65.94;101077.22;4918262;28;96596;-76
2021/11/24 07:22:59;;;;;;;13.82;7.55;;;;;;;6.98;66.48;101080.69;4950662;28;96820;-75
2021/11/24 07:25:25;;;;;;;10.70;6.88;;;;;;;6.97;66.67;101079.81;4950519;28;97427;-76
2021/11/24 07:27:50;;;;;;;13.15;6.78;;;;;;;7.01;66.44;101071.13;4935314;28;97707;-76
2021/11/24 07:30:18;;;;;;;12.73;8.27;;;;;;;7.09;66.31;101075.41;4934098;28;96461;-75
2021/11/24 07:32:44;;;;;;;20.08;10.75;;;;;;;7.11;66.36;101073.66;4934651;28;96829;-74
2021/11/24 07:35:11;;;;;;;13.82;8.93;;;;;;;7.19;65.94;101085.75;4950326;28;98785;-75
2021/11/24 07:37:37;;;;;;;16.75;8.05;;;;;;;7.23;65.81;101078.75;4933976;28;97117;-75
2021/11/24 07:40:07;;;;;;;15.73;7.65;;;;;;;7.23;65.58;101081.38;4933757;28;96618;-76
2021/11/24 07:42:33;;;;;;;10.90;7.13;;;;;;;7.26;65.67;101070.91;4917488;28;96485;-76
2021/11/24 07:44:58;;;;;;;10.00;5.93;;;;;;;7.62;70.35;101063.59;4949973;28;97459;-74
2021/11/24 07:47:25;;;;;;;12.40;7.10;;;;;;;7.97;66.42;101067.59;4934154;28;96528;-77
2021/11/24 07:49:50;;;;;;;13.90;8.65;;;;;;;7.96;65.52;101066.72;4917608;28;96600;-75
2021/11/24 07:52:16;;;;;;;13.30;7.50;;;;;;;7.84;64.59;101064.25;4934126;28;96810;-76
2021/11/24 07:54:42;;;;;;;14.02;7.35;;;;;;;7.70;65.11;101059.16;4917418;28;100586;-76
2021/11/24 07:57:08;;;;;;;12.70;8.15;;;;;;;7.65;64.51;101056.63;4934245;28;97523;-76
2021/11/24 07:59:35;;;;;;;11.93;7.85;;;;;;;7.58;64.53;101059.28;4933541;28;96633;-78
2021/11/24 08:02:01;;;;;;;12.85;7.43;;;;;;;7.58;64.62;101065.38;4949712;28;96706;-76
2021/11/24 08:04:28;;;;;;;16.48;8.45;;;;;;;7.58;64.68;101057.53;4949210;28;100309;-76
2021/11/24 08:06:54;;;;;;;14.15;7.68;;;;;;;7.64;64.69;101060.09;4933716;28;97290;-76
2021/11/24 08:09:19;;;;;;;13.70;6.85;;;;;;;7.58;64.66;101059.28;4917609;28;96435;-76
2021/11/24 08:11:45;;;;;;;10.80;7.50;;;;;;;7.56;64.77;101056.69;4933952;28;96820;-76
2021/11/24 08:14:10;;;;;;;14.60;7.90;;;;;;;7.56;64.67;101053.22;4933621;28;97913;-76
2021/11/24 08:16:36;;;;;;;14.48;7.93;;;;;;;7.60;64.79;101053.19;4949740;28;97066;-78
2021/11/24 08:19:02;;;;;;;16.48;7.57;;;;;;;7.61;64.94;101057.50;4935112;28;96564;-76
2021/11/24 08:21:27;;;;;;;14.02;8.40;;;;;;;7.63;64.59;101060.13;4933694;28;96879;-77
2021/11/24 08:23:53;;;;;;;11.57;8.20;;;;;;;7.60;65.03;101055.78;4932730;28;97482;-77
2021/11/24 08:26:18;;;;;;;17.27;8.88;;;;;;;7.67;64.39;101065.28;4933572;28;97374;-77
2021/11/24 08:28:44;;;;;;;20.33;9.77;;;;;;;7.64;64.66;101052.25;4949359;28;96644;-76
2021/11/24 08:31:10;;;;;;;17.13;9.25;;;;;;;7.70;64.71;101051.31;4949433;28;96842;-77
2021/11/24 08:33:35;;;;;;;12.55;8.05;;;;;;;7.59;64.69;101059.28;4933199;28;97601;-76
2021/11/24 08:36:01;;;;;;;19.58;8.20;;;;;;;7.63;64.76;101060.97;4934210;28;97393;-77
2021/11/24 08:38:27;;;;;;;11.70;6.97;;;;;;;7.65;64.93;101060.94;4949553;28;96485;-77
2021/11/24 08:40:52;;;;;;;16.48;7.85;;;;;;;7.68;64.53;101060.94;4933084;28;96844;-76
2021/11/24 08:43:18;;;;;;;22.42;8.48;;;;;;;7.75;64.42;101066.97;4948275;28;100578;-78
2021/11/24 08:45:44;;;;;;;11.80;7.45;;;;;;;7.79;63.73;101059.06;4932720;28;97592;-76
2021/11/24 08:48:10;;;;;;;15.73;7.35;;;;;;;7.81;64.39;101054.69;4949308;28;96429;-76
2021/11/24 08:50:36;;;;;;;10.77;7.30;;;;;;;7.91;64.09;101058.06;4949272;28;96864;-77
2021/11/24 08:53:02;;;;;;;17.27;7.65;;;;;;;8.01;63.87;101051.84;4932453;28;97418;-77
2021/11/24 08:55:28;;;;;;;14.50;7.85;;;;;;;8.01;63.70;101053.59;4949224;28;97749;-76
2021/11/24 08:57:54;;;;;;;14.30;8.18;;;;;;;8.12;63.27;101064.81;4950525;28;96581;-81
2021/11/24 09:00:21;;;;;;;11.30;6.72;;;;;;;8.10;63.82;101063.94;4936246;28;96725;-77
2021/11/24 09:02:50;;;;;;;14.43;8.35;;;;;;;8.20;63.25;101059.47;4935456;28;97935;-76
2021/11/24 09:05:18;;;;;;;16.90;9.45;;;;;;;8.21;63.33;101061.22;4952129;28;97159;-76
2021/11/24 09:07:46;;;;;;;13.15;7.85;;;;;;;8.19;63.43;101065.59;4952695;28;96593;-77
2021/11/24 09:10:12;;;;;;;12.07;7.35;;;;;;;8.24;63.28;101062.03;4953068;28;96708;-77
2021/11/24 09:12:39;;;;;;;12.80;7.68;;;;;;;8.24;63.33;101054.19;4936295;28;97611;-77
2021/11/24 09:15:05;;;;;;;10.68;6.50;;;;;;;8.30;63.25;101050.63;4920069;28;100036;-76
2021/11/24 09:17:30;;;;;;;11.05;6.82;;;;;;;8.42;63.13;101052.25;4935816;28;96632;-76
2021/11/24 09:19:56;;;;;;;13.00;7.05;;;;;;;8.40;63.05;101054.88;4936461;28;96847;-77
2021/11/24 09:22:22;;;;;;;10.05;6.97;;;;;;;8.46;62.56;101057.41;4952325;28;99869;-76
2021/11/24 09:24:53;;;;;;;10.52;7.00;;;;;;;8.54;62.77;101054.69;4936296;28;97704;-76
2021/11/24 09:27:28;;;;;;;11.02;6.97;;;;;;;8.56;62.42;101052.94;4952048;28;96591;-76
2021/11/24 09:29:55;;;;;;;13.27;7.07;;;;;;;8.54;62.13;101052.94;4951076;28;96722;-77
2021/11/24 09:32:20;;;;;;;13.05;7.03;;;;;;;8.46;62.71;101053.94;4935709;28;100524;-75
2021/11/24 09:34:46;;;;;;;11.82;7.53;;;;;;;8.39;63.08;101045.31;4937725;28;97127;-76
2021/11/24 09:37:11;;;;;;;14.65;8.63;;;;;;;8.36;63.17;101050.53;4952445;28;96656;-77
2021/11/24 09:39:37;;;;;;;15.30;8.40;;;;;;;8.42;63.09;101047.88;4952496;28;96743;-77
2021/11/24 09:42:04;;;;;;;11.43;7.70;;;;;;;8.34;63.28;101047.06;4936429;28;97499;-77
2021/11/24 09:44:31;;;;;;;10.00;6.65;;;;;;;8.33;63.66;101043.59;4935742;28;97327;-77
2021/11/24 09:46:59;;;;;;;10.93;6.25;;;;;;;8.35;63.34;101038.38;4935901;28;96566;-77
2021/11/24 09:49:27;;;;;;;11.20;7.07;;;;;;;8.38;63.52;101030.47;4951919;28;96759;-76
2021/11/24 09:51:53;;;;;;;10.60;7.65;;;;;;;8.37;63.55;101034.81;4951890;28;97511;-77
2021/11/24 09:54:19;;;;;;;9.65;6.68;;;;;;;8.40;63.46;101033.94;4951773;28;100026;-77
2021/11/24 09:56:45;;;;;;;14.25;7.28;;;;;;;8.44;63.62;101034.78;4951941;28;96667;-77
2021/11/24 09:59:13;;;;;;;20.02;10.75;;;;;;;8.41;63.13;101024.34;4935588;28;96854;-76
2021/11/24 10:01:39;;;;;;;15.82;9.45;;;;;;;8.41;63.71;101025.22;4935575;28;97691;-76
2021/11/24 10:04:06;;;;;;;14.60;8.40;;;;;;;8.49;63.03;101020.72;4951534;28;97325;-77
2021/11/24 10:06:37;;;;;;;13.05;7.82;;;;;;;8.51;63.53;101023.34;4951162;28;96611;-77
2021/11/24 10:09:03;;;;;;;11.55;7.07;;;;;;;8.56;63.42;101026.75;4935559;28;96815;-77
2021/11/24 10:11:29;;;;;;;11.70;6.38;;;;;;;8.58;62.99;101018.00;4935212;28;100986;-77
2021/11/24 10:13:55;;;;;;;11.05;6.63;;;;;;;8.56;63.52;101019.78;4919084;28;97871;-76
2021/11/24 10:16:26;;;;;;;10.55;6.53;;;;;;;8.58;63.22;101014.50;4919110;28;96721;-76
2021/11/24 10:18:57;;;;;;;8.48;6.55;;;;;;;8.64;63.36;101010.91;4919516;28;96727;-76
2021/11/24 10:21:23;;;;;;;10.00;6.10;;;;;;;8.61;63.17;101017.09;4935060;28;98040;-77
2021/11/24 10:23:49;;;;;;;13.13;7.30;;;;;;;8.56;63.80;101006.69;4951825;28;97051;-76
2021/11/24 10:26:44;;;;;;;12.88;6.72;;;;;;;8.58;63.39;101004.91;4935569;28;96639;-76
2021/11/24 10:29:12;;;;;;;11.73;6.82;;;;;;;8.63;63.88;101004.81;4897970;28;96590;-76
2021/11/24 10:31:43;;;;;;;12.70;7.95;;;;;;;8.66;63.98;101009.16;4934502;28;96942;-76
2021/11/24 10:34:19;;;;;;;11.15;6.50;;;;;;;8.68;63.51;100995.16;4934934;28;96661;-76
2021/11/24 10:36:55;;;;;;;12.38;7.10;;;;;;;8.64;64.04;100995.22;4951509;28;96548;-77
2021/11/24 10:39:23;;;;;;;9.93;7.00;;;;;;;8.57;64.16;100987.47;4935176;28;96858;-77
2021/11/24 10:41:49;;;;;;;10.10;7.47;;;;;;;8.65;63.93;100987.34;4950927;28;97851;-75
2021/11/24 10:44:29;;;;;;;10.45;6.85;;;;;;;8.66;64.17;100986.47;4934794;28;97603;-76
2021/11/24 10:46:57;;;;;;;9.98;6.60;;;;;;;8.65;63.55;100981.25;4902813;28;96650;-77
2021/11/24 10:49:42;;;;;;;10.73;6.63;;;;;;;8.67;63.88;100974.22;4919285;28;96737;-76
2021/11/24 10:52:21;;;;;;;10.07;6.90;;;;;;;8.68;63.44;100983.84;4934410;28;100848;-77
2021/11/24 10:55:03;;;;;;;13.48;7.60;;;;;;;8.64;64.04;100971.66;4934693;28;97500;-77
2021/11/24 10:57:30;;;;;;;;;;;;;;;8.65;63.53;100963.81;4935164;28;96502;-77
2021/11/24 11:00:02;;;;;;;15.82;7.07;;;;;;;8.70;64.16;100967.22;4966667;28;97267;-77
2021/11/24 11:02:34;;;;;;;12.13;6.60;;;;;;;8.70;64.02;100968.97;4918218;28;100829;-76
2021/11/24 11:05:08;;;;;;;12.13;6.78;;;;;;;8.70;63.88;100968.97;4934581;28;97186;-76
2021/11/24 11:07:49;;;;;;;12.75;7.63;;;;;;;8.67;64.00;100961.16;4934762;28;96716;-76
2021/11/24 11:10:16;;;;;;;11.32;6.40;;;;;;;8.71;63.91;100961.09;4950822;28;96711;-75
2021/11/24 11:12:48;;;;;;;16.85;7.68;;;;;;;8.73;64.00;100959.31;4917387;28;100158;-77
2021/11/24 11:15:24;;;;;;;19.13;8.48;;;;;;;8.71;63.95;100955.00;4951243;28;97386;-76
2021/11/24 11:17:54;;;;;;;13.20;6.45;;;;;;;8.76;63.75;100955.78;4934396;28;96441;-76
2021/11/24 11:20:21;;;;;;;13.95;7.03;;;;;;;8.81;63.80;100959.16;4950426;28;96587;-78
2021/11/24 11:23:07;;;;;;;14.05;8.02;;;;;;;8.76;64.07;100940.94;4933789;28;97290;-77